Time;durP1;ratioP1;P1;durP2;ratioP2;P2;SDS_P1;SDS_P2;PMS_P1;PMS_P2;Temp;Humidity;BMP_temperature;BMP_pressure;BME280_temperature;BME280_humidity;BME280_pressure;Samples;Min_cycle;Max_cycle;Signal;HPM_P1;HPM_P2
2021/12/03 00:01:30;;;;;;;22.90;7.00;;;;;;;3.56;68.15;97536.14;103072;1320;99265;-87
2021/12/03 00:03:59;;;;;;;22.30;7.30;;;;;;;3.50;68.38;97543.22;103131;1324;107910;-88
2021/12/03 00:06:27;;;;;;;25.80;7.90;;;;;;;3.45;67.96;97548.84;102998;1324;99410;-86
2021/12/03 00:08:55;;;;;;;20.90;6.20;;;;;;;3.38;68.09;97559.40;103127;1324;99355;-85
2021/12/03 00:11:23;;;;;;;24.20;6.90;;;;;;;3.33;68.15;97557.47;103063;1319;112844;-85
2021/12/03 00:13:51;;;;;;;21.70;7.90;;;;;;;3.31;68.30;97560.79;103092;1320;99226;-86
2021/12/03 00:16:18;;;;;;;22.90;7.50;;;;;;;3.26;68.01;97560.92;103036;1321;108362;-85
2021/12/03 00:18:46;;;;;;;20.00;6.70;;;;;;;3.23;68.48;97564.41;103045;1320;96724;-85
2021/12/03 00:21:15;;;;;;;24.00;7.40;;;;;;;3.22;68.12;97557.52;103124;1322;97499;-86
2021/12/03 00:23:43;;;;;;;21.90;6.80;;;;;;;3.20;68.25;97570.59;103091;1325;111800;-87
2021/12/03 00:26:11;;;;;;;19.70;6.80;;;;;;;3.19;68.09;97574.39;103063;1320;99281;-86
2021/12/03 00:28:40;;;;;;;26.60;8.20;;;;;;;3.17;67.88;97576.42;102916;1324;107829;-87
2021/12/03 00:31:10;;;;;;;24.80;8.90;;;;;;;3.18;68.06;97575.65;103005;1324;99178;-86
2021/12/03 00:33:40;;;;;;;32.40;11.20;;;;;;;3.15;67.97;97577.05;103004;1319;99978;-87
2021/12/03 00:36:12;;;;;;;22.20;6.80;;;;;;;3.13;68.23;97585.56;102992;1320;112701;-87
2021/12/03 00:38:47;;;;;;;21.90;6.40;;;;;;;3.11;67.67;97584.19;103069;1321;99251;-87
2021/12/03 00:41:20;;;;;;;22.60;7.30;;;;;;;3.04;67.37;97584.46;102955;1320;107807;-85
2021/12/03 00:43:52;;;;;;;20.40;7.20;;;;;;;2.97;67.46;97590.86;103007;1321;99348;-85
2021/12/03 00:46:26;;;;;;;20.20;7.60;;;;;;;2.93;67.19;97599.00;102992;1324;99309;-85
2021/12/03 00:48:56;;;;;;;21.20;6.90;;;;;;;2.84;67.38;97600.59;103051;1320;112911;-87
2021/12/03 00:51:27;;;;;;;23.00;6.80;;;;;;;2.80;67.54;97615.95;102978;1324;97909;-86
2021/12/03 00:53:55;;;;;;;18.40;5.30;;;;;;;2.74;66.87;97620.35;103053;1319;107875;-86
2021/12/03 00:56:23;;;;;;;21.70;6.30;;;;;;;2.65;67.31;97622.63;102994;1324;96740;-86
2021/12/03 00:58:52;;;;;;;16.10;5.10;;;;;;;2.60;67.29;97616.70;103116;1321;96531;-87
2021/12/03 01:01:20;;;;;;;15.00;5.30;;;;;;;2.55;67.57;97616.66;102964;1325;113919;-88
2021/12/03 01:03:51;;;;;;;18.30;5.30;;;;;;;2.52;67.14;97626.92;103057;1325;97635;-87
2021/12/03 01:06:19;;;;;;;18.90;4.80;;;;;;;2.53;67.28;97620.23;103155;1318;107138;-86
2021/12/03 01:08:47;;;;;;;19.00;5.90;;;;;;;2.53;67.30;97616.60;103185;1319;99270;-87
2021/12/03 01:11:15;;;;;;;19.40;5.90;;;;;;;2.53;67.24;97620.10;103277;1319;99199;-88
2021/12/03 01:13:47;;;;;;;20.10;6.00;;;;;;;2.53;67.14;97622.00;103067;1319;112608;-86
2021/12/03 01:16:17;;;;;;;19.30;6.00;;;;;;;2.52;67.21;97615.20;103003;1321;99252;-84
2021/12/03 01:18:46;;;;;;;19.20;6.70;;;;;;;2.50;67.47;97621.86;103016;1322;107769;-85
2021/12/03 01:21:15;;;;;;;19.30;6.10;;;;;;;2.50;67.47;97620.77;102895;1318;99345;-85
2021/12/03 01:23:46;;;;;;;18.10;5.70;;;;;;;2.53;67.59;97616.23;103016;1319;99452;-83
2021/12/03 01:26:15;;;;;;;19.70;6.60;;;;;;;2.54;67.17;97615.82;102774;1327;112845;-82
2021/12/03 01:28:43;;;;;;;19.10;6.20;;;;;;;2.54;66.95;97620.70;102865;1321;99368;-83
2021/12/03 01:31:17;;;;;;;21.40;6.60;;;;;;;2.54;67.54;97623.54;102809;1323;109173;-87
2021/12/03 01:33:48;;;;;;;18.80;6.90;;;;;;;2.53;67.46;97626.19;103000;1321;99305;-86
2021/12/03 01:36:16;;;;;;;21.90;6.40;;;;;;;2.53;67.06;97628.48;102839;1322;97270;-86
2021/12/03 01:38:47;;;;;;;22.10;6.50;;;;;;;2.50;67.10;97632.51;102883;1321;112901;-85
2021/12/03 01:41:18;;;;;;;20.90;6.30;;;;;;;2.48;66.97;97637.69;103019;1320;97640;-84
2021/12/03 01:43:46;;;;;;;22.00;7.50;;;;;;;2.43;66.59;97643.61;102804;1326;107908;-85
2021/12/03 01:46:19;;;;;;;25.80;7.70;;;;;;;2.39;66.65;97640.02;102913;1323;99366;-87
2021/12/03 01:48:47;;;;;;;21.50;7.10;;;;;;;2.36;66.96;97637.60;102819;1326;96769;-86
2021/12/03 01:51:19;;;;;;;26.40;7.40;;;;;;;2.33;66.84;97640.35;103041;1320;112896;-86
2021/12/03 01:53:49;;;;;;;21.20;6.40;;;;;;;2.30;67.24;97640.02;103039;1324;99481;-85
2021/12/03 01:56:21;;;;;;;20.30;6.40;;;;;;;2.28;67.14;97636.88;103020;1321;106062;-84
2021/12/03 01:58:52;;;;;;;21.90;6.40;;;;;;;2.26;66.89;97650.79;102956;1324;99749;-86
2021/12/03 02:01:25;;;;;;;16.30;6.10;;;;;;;2.23;67.04;97653.75;102970;1320;99262;-87
2021/12/03 02:03:57;;;;;;;18.80;5.90;;;;;;;2.22;66.78;97646.27;103013;1320;113313;-87
2021/12/03 02:06:28;;;;;;;19.20;6.20;;;;;;;2.19;66.55;97634.23;103017;1323;97418;-87
2021/12/03 02:08:58;;;;;;;20.40;7.00;;;;;;;2.17;66.59;97625.96;103011;1319;107889;-85
2021/12/03 02:11:28;;;;;;;20.10;6.30;;;;;;;2.14;66.78;97620.52;103023;1318;99370;-87
2021/12/03 02:14:00;;;;;;;21.70;6.40;;;;;;;2.13;66.55;97619.05;103158;1318;99352;-86
2021/12/03 02:16:31;;;;;;;20.30;6.30;;;;;;;2.13;66.67;97623.79;103152;1319;113419;-86
2021/12/03 02:19:02;;;;;;;22.50;6.70;;;;;;;2.13;66.40;97634.63;103143;1319;99354;-86
2021/12/03 02:21:32;;;;;;;19.80;6.50;;;;;;;2.10;66.61;97644.95;102923;1322;107734;-86
2021/12/03 02:24:00;;;;;;;20.90;6.10;;;;;;;2.09;66.82;97652.34;102811;1320;99398;-86
2021/12/03 02:26:28;;;;;;;22.30;6.10;;;;;;;2.12;66.69;97656.75;103007;1318;96683;-84
2021/12/03 02:28:56;;;;;;;20.20;6.50;;;;;;;2.11;66.78;97656.41;103141;1320;113166;-85
2021/12/03 02:31:25;;;;;;;18.70;5.80;;;;;;;2.10;66.59;97663.68;103009;1321;97302;-87
2021/12/03 02:33:54;;;;;;;17.10;6.10;;;;;;;2.09;66.78;97665.48;103144;1322;107745;-89
2021/12/03 02:36:24;;;;;;;19.10;6.30;;;;;;;2.05;66.51;97661.16;103051;1319;99335;-85
2021/12/03 02:38:52;;;;;;;20.60;6.50;;;;;;;2.01;66.48;97663.30;103163;1321;99262;-85
2021/12/03 02:41:23;;;;;;;19.20;5.90;;;;;;;2.01;66.69;97672.05;103249;1319;111682;-87
2021/12/03 02:43:53;;;;;;;20.20;6.30;;;;;;;2.00;66.64;97681.75;103230;1323;99205;-90
2021/12/03 02:46:22;;;;;;;19.90;6.50;;;;;;;1.98;66.36;97687.62;103087;1318;108109;-87
2021/12/03 02:48:49;;;;;;;22.80;7.00;;;;;;;1.97;66.47;97693.29;103126;1318;99850;-88
2021/12/03 02:51:17;;;;;;;22.00;6.70;;;;;;;1.97;66.47;97696.29;103100;1318;99222;-86
2021/12/03 02:53:47;;;;;;;22.10;6.60;;;;;;;1.93;66.41;97702.97;102890;1319;203747;-87
2021/12/03 02:56:15;;;;;;;20.20;6.00;;;;;;;1.86;66.05;97709.98;102996;1318;99387;-86
2021/12/03 02:58:43;;;;;;;20.30;6.50;;;;;;;1.82;65.95;97715.68;102873;1319;107744;-83
2021/12/03 03:01:14;;;;;;;23.70;6.50;;;;;;;1.78;66.06;97722.88;102951;1320;99216;-85
2021/12/03 03:03:42;;;;;;;24.70;7.00;;;;;;;1.75;66.15;97726.23;102959;1318;96532;-85
2021/12/03 03:06:16;;;;;;;22.40;6.60;;;;;;;1.71;66.21;97725.92;102817;1321;112923;-85
2021/12/03 03:08:44;;;;;;;22.40;6.50;;;;;;;1.69;66.09;97731.07;103048;1319;99322;-83
2021/12/03 03:11:17;;;;;;;19.60;6.00;;;;;;;1.67;66.03;97735.75;103136;1319;107767;-85
2021/12/03 03:13:47;;;;;;;19.00;5.80;;;;;;;1.63;66.07;97728.45;102997;1320;99367;-87
2021/12/03 03:16:17;;;;;;;21.60;6.40;;;;;;;1.61;66.22;97727.88;103043;1321;99274;-86
2021/12/03 03:18:46;;;;;;;21.90;6.40;;;;;;;1.59;66.37;97738.47;103027;1320;112823;-88
2021/12/03 03:21:20;;;;;;;20.80;5.80;;;;;;;1.58;66.11;97747.59;103112;1322;99391;-85
2021/12/03 03:23:51;;;;;;;17.80;5.60;;;;;;;1.57;66.30;97751.50;103020;1318;107653;-84
2021/12/03 03:26:19;;;;;;;18.80;5.60;;;;;;;1.57;66.20;97752.73;103006;1318;96651;-85
2021/12/03 03:28:47;;;;;;;16.00;4.50;;;;;;;1.58;66.07;97753.06;103055;1319;98424;-85
2021/12/03 03:31:15;;;;;;;18.80;5.60;;;;;;;1.57;66.24;97751.36;102937;1319;112894;-85
2021/12/03 03:33:43;;;;;;;18.70;4.70;;;;;;;1.54;66.24;97756.95;103003;1320;99261;-86
2021/12/03 03:36:16;;;;;;;17.50;5.10;;;;;;;1.52;66.23;97761.05;102989;1318;107464;-85
2021/12/03 03:38:44;;;;;;;18.60;5.00;;;;;;;1.50;66.17;97762.59;103012;1318;99356;-86
2021/12/03 03:41:11;;;;;;;16.50;5.00;;;;;;;1.47;66.14;97759.95;103022;1319;99213;-87
2021/12/03 03:43:39;;;;;;;18.00;5.30;;;;;;;1.43;66.15;97762.94;103052;1318;113030;-87
2021/12/03 03:46:08;;;;;;;15.70;4.50;;;;;;;1.42;66.21;97770.53;103190;1320;99359;-86
2021/12/03 03:48:36;;;;;;;15.00;4.60;;;;;;;1.41;66.15;97777.95;103035;1319;107826;-85
2021/12/03 03:51:04;;;;;;;19.10;5.30;;;;;;;1.39;65.95;97775.25;103043;1319;99232;-85
2021/12/03 03:53:32;;;;;;;18.80;5.30;;;;;;;1.36;66.00;97779.23;103034;1318;99172;-85
2021/12/03 03:56:02;;;;;;;15.80;4.80;;;;;;;1.32;66.10;97783.63;103001;1320;112889;-86
2021/12/03 03:58:30;;;;;;;18.40;6.50;;;;;;;1.32;65.92;97788.19;102999;1318;99228;-88
2021/12/03 04:00:58;;;;;;;19.50;6.10;;;;;;;1.30;65.95;97794.08;102884;1318;107849;-87
2021/12/03 04:03:26;;;;;;;26.50;6.20;;;;;;;1.28;66.23;97798.51;102991;1319;98013;-84
2021/12/03 04:05:54;;;;;;;16.30;4.70;;;;;;;1.29;66.00;97801.45;102945;1318;99515;-85
2021/12/03 04:08:22;;;;;;;16.50;4.70;;;;;;;1.27;65.78;97808.01;103011;1316;112860;-84
2021/12/03 04:10:53;;;;;;;12.30;4.00;;;;;;;1.27;66.05;97811.38;102936;1320;99486;-85
2021/12/03 04:13:26;;;;;;;14.80;5.10;;;;;;;1.23;65.96;97806.68;103098;1318;107737;-84
2021/12/03 04:15:54;;;;;;;14.70;4.40;;;;;;;1.19;65.90;97806.88;102935;1324;98038;-85
2021/12/03 04:18:25;;;;;;;14.40;4.70;;;;;;;1.17;65.95;97811.34;102966;1319;99281;-82
2021/12/03 04:20:53;;;;;;;20.20;6.30;;;;;;;1.16;65.97;97813.16;102895;1322;112929;-83
2021/12/03 04:23:21;;;;;;;15.40;5.00;;;;;;;1.12;65.58;97812.14;102883;1323;98638;-82
2021/12/03 04:25:50;;;;;;;17.50;4.70;;;;;;;1.07;65.51;97808.77;102858;1321;108257;-83
2021/12/03 04:28:23;;;;;;;17.40;4.40;;;;;;;1.04;65.68;97803.84;103069;1317;99362;-83
2021/12/03 04:30:55;;;;;;;16.30;4.80;;;;;;;1.02;65.74;97797.13;103162;1318;99259;-81
2021/12/03 04:33:26;;;;;;;15.60;4.60;;;;;;;1.04;65.96;97797.23;102822;1318;112885;-80
2021/12/03 04:35:54;;;;;;;16.60;5.20;;;;;;;1.06;65.83;97799.77;102877;1318;99379;-83
2021/12/03 04:38:22;;;;;;;16.70;5.30;;;;;;;1.04;65.80;97803.65;103005;1319;108264;-84
2021/12/03 04:40:53;;;;;;;19.20;5.70;;;;;;;1.02;65.65;97809.52;103178;1318;99224;-84
2021/12/03 04:43:23;;;;;;;17.30;5.10;;;;;;;0.98;65.60;97814.45;102991;1319;99341;-88
2021/12/03 04:45:51;;;;;;;17.60;5.90;;;;;;;0.96;65.84;97813.90;103015;1319;113073;-80
2021/12/03 04:48:21;;;;;;;16.90;5.10;;;;;;;0.96;65.86;97815.80;102858;1319;99438;-81
2021/12/03 04:50:53;;;;;;;18.60;4.90;;;;;;;0.96;65.78;97820.55;102745;1319;107841;-80
2021/12/03 04:53:20;;;;;;;15.70;4.60;;;;;;;0.95;65.76;97827.59;103215;1326;97519;-82
2021/12/03 04:55:50;;;;;;;19.10;5.60;;;;;;;0.91;66.03;97825.31;102849;1323;99357;-82
2021/12/03 04:58:19;;;;;;;17.90;5.60;;;;;;;0.90;65.62;97829.22;102749;1318;111320;-80
2021/12/03 05:00:55;;;;;;;18.10;5.70;;;;;;;0.87;65.71;97837.41;102774;1319;99316;-80
2021/12/03 05:03:29;;;;;;;19.10;5.50;;;;;;;0.85;65.53;97843.23;102802;1319;107989;-80
2021/12/03 05:06:01;;;;;;;18.20;5.40;;;;;;;0.83;65.61;97846.14;102916;1318;96566;-80
2021/12/03 05:08:31;;;;;;;16.70;5.00;;;;;;;0.82;65.62;97858.42;102704;1320;99563;-81
2021/12/03 05:11:01;;;;;;;22.40;5.40;;;;;;;0.81;65.76;97863.03;102861;1321;111883;-79
2021/12/03 05:13:34;;;;;;;17.80;4.80;;;;;;;0.81;65.72;97869.33;102964;1318;97334;-81
2021/12/03 05:16:06;;;;;;;17.20;4.70;;;;;;;0.77;65.47;97872.80;102991;1319;107920;-80
2021/12/03 05:18:34;;;;;;;16.70;4.90;;;;;;;0.76;65.66;97874.27;102909;1322;97277;-81
2021/12/03 05:21:03;;;;;;;16.30;5.60;;;;;;;0.77;65.81;97879.30;102990;1319;96987;-82
2021/12/03 05:23:35;;;;;;;19.00;5.90;;;;;;;0.76;65.67;97888.95;102978;1319;112875;-81
2021/12/03 05:26:04;;;;;;;19.10;5.10;;;;;;;0.72;65.59;97895.39;103082;1318;99294;-81
2021/12/03 05:28:32;;;;;;;16.00;4.50;;;;;;;0.71;65.62;97904.03;102717;1325;107866;-80
2021/12/03 05:30:59;;;;;;;20.80;5.40;;;;;;;0.67;65.67;97912.59;102818;1318;99044;-80
2021/12/03 05:33:27;;;;;;;15.20;5.10;;;;;;;0.66;65.63;97914.89;103002;1318;97847;-83
2021/12/03 05:35:55;;;;;;;18.30;5.30;;;;;;;0.67;65.60;97918.68;102918;1318;112697;-80
2021/12/03 05:38:23;;;;;;;20.40;6.40;;;;;;;0.66;65.69;97915.44;102966;1319;99506;-86
2021/12/03 05:40:55;;;;;;;17.60;6.00;;;;;;;0.66;65.69;97913.70;103021;1321;106836;-86
2021/12/03 05:43:23;;;;;;;15.50;5.40;;;;;;;0.67;65.69;97920.80;103022;1318;99281;-86
2021/12/03 05:45:53;;;;;;;16.30;5.10;;;;;;;0.63;65.62;97923.24;102906;1325;97645;-85
2021/12/03 05:48:21;;;;;;;16.50;5.90;;;;;;;0.61;65.60;97927.06;103106;1322;112896;-86
2021/12/03 05:50:50;;;;;;;16.70;5.50;;;;;;;0.59;65.59;97939.71;102901;1312;99691;-84
2021/12/03 05:53:18;;;;;;;16.60;5.50;;;;;;;0.56;65.67;97943.16;103077;1318;107831;-85
2021/12/03 05:55:46;;;;;;;18.10;5.60;;;;;;;0.56;65.75;97945.92;102998;1321;99345;-85
2021/12/03 05:58:16;;;;;;;15.00;4.90;;;;;;;0.59;65.64;97953.13;103117;1318;99388;-85
2021/12/03 06:00:51;;;;;;;17.30;5.70;;;;;;;0.59;65.69;97960.45;103078;1319;113020;-84
2021/12/03 06:03:19;;;;;;;16.70;5.30;;;;;;;0.59;65.81;97970.75;103044;1320;99531;-82
2021/12/03 06:05:47;;;;;;;14.60;4.50;;;;;;;0.59;65.65;97984.54;103135;1318;107678;-83
2021/12/03 06:08:18;;;;;;;15.10;5.10;;;;;;;0.58;65.67;97985.27;103134;1319;99412;-83
2021/12/03 06:10:50;;;;;;;17.30;5.50;;;;;;;0.56;65.62;97986.60;103136;1322;99351;-83
2021/12/03 06:13:17;;;;;;;14.50;4.70;;;;;;;0.54;65.62;97988.80;103110;1319;112815;-82
2021/12/03 06:15:47;;;;;;;16.00;4.80;;;;;;;0.51;65.56;97994.33;103149;1318;97999;-74
2021/12/03 06:18:15;;;;;;;15.90;5.00;;;;;;;0.49;65.59;97994.77;103118;1318;107808;-83
2021/12/03 06:20:48;;;;;;;16.70;5.30;;;;;;;0.48;65.43;97999.58;103170;1319;99250;-86
2021/12/03 06:23:17;;;;;;;16.60;4.30;;;;;;;0.46;65.59;97997.38;103082;1322;98032;-83
2021/12/03 06:25:52;;;;;;;13.70;4.70;;;;;;;0.48;65.78;97994.83;103308;1322;113787;-84
2021/12/03 06:28:20;;;;;;;14.40;4.70;;;;;;;0.51;65.72;98003.94;103039;1321;99148;-82
2021/12/03 06:30:52;;;;;;;15.80;5.20;;;;;;;0.53;65.66;98002.64;103117;1318;106601;-84
2021/12/03 06:33:20;;;;;;;18.00;5.30;;;;;;;0.55;65.59;98005.66;103325;1319;98871;-79
2021/12/03 06:35:55;;;;;;;18.10;4.70;;;;;;;0.58;65.59;98003.77;103145;1319;99319;-79
2021/12/03 06:38:27;;;;;;;12.90;4.60;;;;;;;0.59;65.84;97999.52;102998;1319;112889;-79
2021/12/03 06:40:55;;;;;;;16.00;4.20;;;;;;;0.61;65.66;98005.56;103106;1318;99352;-80
2021/12/03 06:43:23;;;;;;;13.20;4.20;;;;;;;0.63;65.68;98010.70;103029;1318;107904;-80
2021/12/03 06:45:54;;;;;;;17.00;5.30;;;;;;;0.63;65.42;98013.11;102968;1322;96774;-84
2021/12/03 06:48:22;;;;;;;14.20;4.40;;;;;;;0.63;65.56;98018.73;103177;1318;99323;-88
2021/12/03 06:50:52;;;;;;;17.90;4.40;;;;;;;0.61;65.58;98023.00;103340;1318;113143;-86
2021/12/03 06:53:24;;;;;;;16.20;5.50;;;;;;;0.61;65.67;98029.95;103135;1318;99362;-86
2021/12/03 06:56:04;;;;;;;14.50;5.60;;;;;;;0.58;65.65;98040.04;103153;1319;107848;-82
2021/12/03 06:58:32;;;;;;;17.40;5.30;;;;;;;0.60;65.72;98048.17;102880;1318;99358;-84
2021/12/03 07:01:03;;;;;;;13.70;4.50;;;;;;;0.62;65.74;98049.11;102986;1318;99377;-85
2021/12/03 07:03:37;;;;;;;17.20;4.70;;;;;;;0.63;65.61;98051.01;102849;1319;113892;-84
2021/12/03 07:06:05;;;;;;;16.70;5.70;;;;;;;0.62;65.54;98054.34;103039;1321;99321;-84
2021/12/03 07:08:33;;;;;;;20.60;6.40;;;;;;;0.61;65.57;98060.48;103043;1318;106584;-83
2021/12/03 07:11:02;;;;;;;16.90;5.70;;;;;;;0.60;65.55;98070.31;102887;1319;99222;-83
2021/12/03 07:13:31;;;;;;;15.70;5.10;;;;;;;0.60;65.67;98071.05;103159;1321;98056;-80
2021/12/03 07:16:02;;;;;;;15.50;5.10;;;;;;;0.61;65.73;98076.89;103080;1318;112495;-80
2021/12/03 07:18:32;;;;;;;17.90;5.80;;;;;;;0.64;65.80;98086.34;102999;1319;96619;-79
2021/12/03 07:21:00;;;;;;;15.00;5.20;;;;;;;0.68;65.81;98089.85;102905;1318;107916;-78
2021/12/03 07:23:28;;;;;;;17.30;5.30;;;;;;;0.68;65.81;98090.01;102873;1318;99367;-78
2021/12/03 07:25:59;;;;;;;16.30;5.50;;;;;;;0.68;65.73;98097.86;103055;1317;99642;-77
2021/12/03 07:28:32;;;;;;;16.90;6.00;;;;;;;0.67;65.60;98091.09;102759;1325;112904;-82
2021/12/03 07:31:00;;;;;;;16.10;5.20;;;;;;;0.68;65.58;98096.66;102921;1319;97769;-80
2021/12/03 07:33:30;;;;;;;19.90;5.70;;;;;;;0.69;65.64;98100.24;102908;1319;107487;-80
2021/12/03 07:36:06;;;;;;;17.20;5.70;;;;;;;0.69;65.76;98099.92;102867;1318;99201;-81
2021/12/03 07:38:38;;;;;;;18.50;5.90;;;;;;;0.68;65.75;98104.67;102979;1318;99262;-83
2021/12/03 07:41:09;;;;;;;17.70;5.70;;;;;;;0.68;65.70;98104.13;103111;1319;112760;-83
2021/12/03 07:43:37;;;;;;;14.00;4.70;;;;;;;0.68;65.54;98102.58;102877;1318;99253;-83
2021/12/03 07:46:05;;;;;;;17.60;5.60;;;;;;;0.67;65.65;98102.06;103007;1322;107692;-82
2021/12/03 07:48:33;;;;;;;15.90;4.90;;;;;;;0.66;65.54;98111.70;102940;1319;99444;-84
2021/12/03 07:51:01;;;;;;;16.80;5.40;;;;;;;0.64;65.55;98119.15;103100;1318;99243;-80
2021/12/03 07:53:32;;;;;;;21.90;7.30;;;;;;;0.64;65.63;98126.32;102861;1319;112972;-81
2021/12/03 07:56:01;;;;;;;18.80;5.80;;;;;;;0.66;65.54;98131.48;102908;1319;99355;-80
2021/12/03 07:58:29;;;;;;;15.40;5.30;;;;;;;0.63;65.52;98134.36;102872;1318;107892;-81
2021/12/03 08:00:58;;;;;;;13.90;4.80;;;;;;;0.60;65.48;98135.20;103024;1319;99373;-84
2021/12/03 08:03:28;;;;;;;16.60;5.50;;;;;;;0.60;65.62;98135.76;103021;1318;97492;-85
2021/12/03 08:06:04;;;;;;;15.60;5.70;;;;;;;0.61;65.70;98141.63;103023;1318;112884;-86
2021/12/03 08:08:33;;;;;;;14.90;4.90;;;;;;;0.63;65.70;98141.54;103066;1319;99011;-83
2021/12/03 08:11:01;;;;;;;14.70;5.30;;;;;;;0.64;65.65;98140.45;102914;1318;107837;-81
2021/12/03 08:13:31;;;;;;;16.00;5.30;;;;;;;0.62;65.71;98141.59;102958;1319;99359;-78
2021/12/03 08:15:59;;;;;;;17.20;6.10;;;;;;;0.62;65.70;98145.42;102978;1319;99267;-83
2021/12/03 08:18:27;;;;;;;16.80;5.60;;;;;;;0.61;65.70;98149.47;103030;1318;113587;-85
2021/12/03 08:20:55;;;;;;;14.70;5.30;;;;;;;0.62;65.71;98153.29;102941;1321;99276;-85
2021/12/03 08:23:28;;;;;;;20.70;5.70;;;;;;;0.64;65.80;98159.45;103196;1317;107800;-85
2021/12/03 08:25:58;;;;;;;14.10;4.80;;;;;;;0.66;65.74;98166.19;103025;1321;98055;-85
2021/12/03 08:28:27;;;;;;;18.20;5.60;;;;;;;0.65;65.62;98163.11;103112;1319;99346;-88
2021/12/03 08:30:55;;;;;;;18.00;6.40;;;;;;;0.64;65.73;98160.19;103137;1320;112926;-85
2021/12/03 08:33:23;;;;;;;15.70;6.80;;;;;;;0.66;65.79;98162.51;102871;1321;99240;-84
2021/12/03 08:35:53;;;;;;;16.30;5.60;;;;;;;0.67;65.78;98164.74;102940;1322;107861;-83
2021/12/03 08:38:24;;;;;;;17.60;5.80;;;;;;;0.69;65.75;98167.97;103087;1318;99208;-84
2021/12/03 08:41:12;;;;;;;17.10;6.00;;;;;;;0.72;65.93;98179.49;103117;1318;97994;-84
2021/12/03 08:43:44;;;;;;;18.20;5.60;;;;;;;0.76;65.96;98187.73;103175;1318;113358;-86
2021/12/03 08:46:21;;;;;;;19.00;6.30;;;;;;;0.79;65.86;98187.25;103078;1319;99440;-85
2021/12/03 08:48:49;;;;;;;17.80;5.70;;;;;;;0.79;65.95;98190.55;103016;1321;107668;-83
2021/12/03 08:57:21;;;;;;;17.40;5.80;;;;;;;0.79;65.78;98198.21;102319;1323;113534;-83
2021/12/03 09:00:18;;;;;;;15.60;4.90;;;;;;;0.77;65.95;98199.35;103697;1318;99312;-82
2021/12/03 09:02:48;;;;;;;21.60;7.80;;;;;;;0.80;66.05;98203.20;103052;1319;106549;-84
2021/12/03 09:05:16;;;;;;;18.20;5.80;;;;;;;0.82;65.98;98201.02;103164;1313;99200;-84
2021/12/03 09:07:44;;;;;;;18.50;5.80;;;;;;;0.83;65.92;98209.02;103157;1318;99230;-84
2021/12/03 09:10:35;;;;;;;17.00;6.10;;;;;;;0.85;65.90;98216.09;103114;1319;112912;-82
2021/12/03 09:13:06;;;;;;;15.70;5.40;;;;;;;0.86;65.90;98220.22;102926;1324;99283;-85
2021/12/03 09:15:39;;;;;;;17.00;6.20;;;;;;;0.92;65.99;98219.80;103097;1319;107938;-85
2021/12/03 09:26:15;;;;;;;17.80;6.20;;;;;;;1.06;65.85;98230.48;103172;1321;97732;-83
2021/12/03 09:28:45;;;;;;;;;;;;;;;1.07;65.96;98228.48;102792;1321;107879;-85
2021/12/03 09:31:16;;;;;;;14.70;5.90;;;;;;;1.07;65.93;98232.36;102993;1320;98267;-86
2021/12/03 09:33:48;;;;;;;19.30;7.20;;;;;;;1.05;66.06;98238.54;103383;1318;97349;-87
2021/12/03 09:36:19;;;;;;;19.20;6.50;;;;;;;1.10;66.03;98236.41;103000;1319;111868;-85
2021/12/03 09:38:48;;;;;;;16.40;5.70;;;;;;;1.14;65.84;98241.80;103076;1321;99256;-82
2021/12/03 09:41:27;;;;;;;11.80;5.10;;;;;;;1.18;65.52;98245.98;103192;1321;109012;-85
2021/12/03 09:43:57;;;;;;;11.70;4.60;;;;;;;1.21;65.50;98255.27;103001;1322;99697;-82
2021/12/03 09:46:27;;;;;;;10.90;4.40;;;;;;;1.23;65.62;98250.13;102765;1319;99372;-79
2021/12/03 09:51:50;;;;;;;15.10;5.40;;;;;;;1.37;65.66;98248.56;103072;1321;99127;-82
2021/12/03 09:57:09;;;;;;;11.70;4.20;;;;;;;1.42;64.42;98255.33;102896;1318;99232;-80
2021/12/03 10:14:51;;;;;;;13.20;4.90;;;;;;;1.21;64.79;98276.95;103117;1318;99207;-85
2021/12/03 10:49:32;;;;;;;14.80;4.70;;;;;;;1.67;64.78;98275.95;102964;1318;107743;-79
2021/12/03 12:16:56;;;;;;;14.90;4.50;;;;;;;2.95;64.20;98335.62;102866;1319;99108;-77
2021/12/03 12:19:49;;;;;;;12.60;4.50;;;;;;;2.98;63.20;98341.58;103012;1319;99362;-75
2021/12/03 13:14:29;;;;;;;18.40;6.60;;;;;;;1.73;62.77;98370.76;102954;1318;99353;-74
2021/12/03 14:48:39;;;;;;;30.10;11.80;;;;;;;0.85;62.90;98456.79;102930;1318;107008;-76
2021/12/03 14:51:28;;;;;;;30.20;12.00;;;;;;;0.84;62.90;98459.81;102845;1321;99272;-79
2021/12/03 14:56:46;;;;;;;30.00;13.90;;;;;;;0.84;63.00;98459.98;102940;1318;112967;-76
2021/12/03 14:59:19;;;;;;;28.90;12.80;;;;;;;0.82;62.81;98463.38;102779;1322;99339;-78
2021/12/03 15:01:58;;;;;;;36.00;14.40;;;;;;;0.79;62.86;98467.37;102853;1320;107877;-78
2021/12/03 15:04:56;;;;;;;28.30;12.70;;;;;;;0.77;62.76;98472.17;102958;1318;99346;-82
2021/12/03 15:07:36;;;;;;;30.20;12.80;;;;;;;0.71;62.63;98468.38;102830;1318;99253;-79
2021/12/03 15:10:12;;;;;;;27.50;10.80;;;;;;;0.65;62.65;98473.52;102949;1318;112877;-73
2021/12/03 15:16:18;;;;;;;26.70;12.00;;;;;;;0.57;62.82;98472.77;102814;1319;107854;-75
2021/12/03 15:18:39;;;;;;;23.20;9.70;;;;;;;0.54;62.57;98474.48;102895;1319;99240;-75
2021/12/03 15:21:30;;;;;;;22.90;8.40;;;;;;;0.52;62.84;98472.14;102846;1321;98577;-75
2021/12/03 15:27:04;;;;;;;25.20;8.90;;;;;;;0.47;62.63;98476.35;102779;1318;99088;-77
2021/12/03 15:32:13;;;;;;;25.70;9.30;;;;;;;0.44;62.73;98482.21;102884;1318;99331;-76
2021/12/03 15:40:11;;;;;;;;;;;;;;;0.42;62.58;98501.27;103065;1318;97792;-75
2021/12/03 16:10:40;;;;;;;29.90;12.40;;;;;;;0.17;62.36;98511.02;103015;1318;107963;-77
2021/12/03 16:21:47;;;;;;;35.40;15.10;;;;;;;0.08;62.36;98513.61;102838;1319;99886;-76
2021/12/03 16:27:39;;;;;;;32.50;13.60;;;;;;;0.02;62.33;98522.77;102932;1319;99268;-72
2021/12/03 16:47:02;;;;;;;29.80;12.10;;;;;;;0.01;62.49;98549.48;102430;1322;112734;-76
2021/12/03 16:52:14;;;;;;;30.60;13.10;;;;;;;0.03;62.33;98549.92;102972;1318;107821;-73
2021/12/03 16:55:04;;;;;;;32.70;13.80;;;;;;;0.03;62.39;98550.77;102751;1322;99481;-81
2021/12/03 16:57:34;;;;;;;29.10;12.30;;;;;;;0.04;62.34;98554.07;102902;1322;99247;-75
2021/12/03 17:00:17;;;;;;;28.90;12.60;;;;;;;0.02;62.27;98552.21;102859;1322;112912;-74
2021/12/03 17:19:13;;;;;;;24.50;10.40;;;;;;;0.02;62.38;98565.80;102875;1318;107710;-72
2021/12/03 17:22:09;;;;;;;28.60;10.60;;;;;;;0.01;62.25;98569.50;103020;1319;99209;-72
2021/12/03 17:30:30;;;;;;;29.90;10.10;;;;;;;0.01;62.19;98581.20;102987;1318;99204;-72
2021/12/03 17:48:48;;;;;;;34.20;13.50;;;;;;;0.10;62.14;98598.30;103002;1318;99324;-74
2021/12/03 17:56:55;;;;;;;43.10;18.90;;;;;;;0.13;62.25;98606.72;102899;1320;99244;-75
2021/12/03 17:59:30;;;;;;;38.40;15.70;;;;;;;0.12;62.14;98611.63;102958;1319;106762;-76
2021/12/03 18:51:13;;;;;;;43.60;18.50;;;;;;;-0.19;61.89;98626.01;102832;1318;99250;-77
2021/12/03 18:59:07;;;;;;;39.00;16.10;;;;;;;-0.24;61.79;98636.45;102821;1318;98666;-76
2021/12/03 19:01:46;;;;;;;40.40;18.00;;;;;;;-0.24;61.84;98636.66;102694;1325;112034;-75
2021/12/03 19:04:32;;;;;;;39.10;17.90;;;;;;;-0.25;61.83;98630.24;102813;1319;99842;-75
2021/12/03 19:07:08;;;;;;;37.50;16.30;;;;;;;-0.26;61.70;98628.89;102941;1318;106875;-76
2021/12/03 19:09:47;;;;;;;41.90;16.90;;;;;;;-0.27;61.81;98631.54;103026;1318;99354;-75
2021/12/03 19:12:24;;;;;;;37.10;16.50;;;;;;;-0.29;61.71;98631.42;102934;1318;97744;-73
2021/12/03 19:15:02;;;;;;;38.00;18.30;;;;;;;-0.29;61.69;98636.31;102775;1319;112939;-74
2021/12/03 19:17:36;;;;;;;40.80;18.70;;;;;;;-0.31;61.68;98634.98;102861;1320;99156;-74
2021/12/03 19:20:11;;;;;;;40.20;18.00;;;;;;;-0.34;61.61;98632.10;102885;1319;108030;-74
2021/12/03 19:22:39;;;;;;;39.60;17.00;;;;;;;-0.35;61.75;98635.98;102812;1322;99963;-78
2021/12/03 19:25:10;;;;;;;39.50;15.60;;;;;;;-0.36;61.53;98635.31;102815;1318;99420;-73
2021/12/03 19:27:38;;;;;;;40.00;15.20;;;;;;;-0.36;61.75;98637.60;102999;1318;111895;-81
2021/12/03 19:30:07;;;;;;;38.00;17.00;;;;;;;-0.37;61.69;98637.27;103445;1320;100049;-80